Time;durP1;ratioP1;P1;durP2;ratioP2;P2;SDS_P1;SDS_P2;PMS_P1;PMS_P2;Temp;Humidity;BMP_temperature;BMP_pressure;BME280_temperature;BME280_humidity;BME280_pressure;Samples;Min_cycle;Max_cycle;Signal;HPM_P1;HPM_P2
2023/01/23 00:01:50;;;;;;;12.32;7.68;;;2.10;99.90;;;;;;4965162;28;20094;-62
2023/01/23 00:04:16;;;;;;;15.30;7.85;;;2.70;99.90;;;;;;4965196;28;20042;-62
2023/01/23 00:06:42;;;;;;;16.23;7.75;;;3.20;99.90;;;;;;4965386;28;20070;-63
2023/01/23 00:09:08;;;;;;;13.98;8.38;;;3.30;99.90;;;;;;4964535;28;20482;-62
2023/01/23 00:11:34;;;;;;;12.38;7.75;;;2.00;99.90;;;;;;4964740;28;20130;-62
2023/01/23 00:14:01;;;;;;;12.70;7.82;;;2.80;99.90;;;;;;4965460;28;20511;-62
2023/01/23 00:16:29;;;;;;;11.50;7.25;;;3.60;99.90;;;;;;4965362;28;20047;-62
2023/01/23 00:18:56;;;;;;;12.00;7.47;;;3.30;99.90;;;;;;4964716;28;20042;-62
2023/01/23 00:21:24;;;;;;;12.57;8.10;;;2.80;99.90;;;;;;4964953;28;20102;-62
2023/01/23 00:23:53;;;;;;;14.88;8.10;;;3.10;99.90;;;;;;4947017;28;20034;-62
2023/01/23 00:26:21;;;;;;;13.48;8.30;;;2.30;99.90;;;;;;4964403;28;20058;-62
2023/01/23 00:28:48;;;;;;;13.13;8.10;;;2.80;99.90;;;;;;4965094;28;20051;-62
2023/01/23 00:31:20;;;;;;;13.27;7.78;;;3.20;99.90;;;;;;4965040;28;20051;-63
2023/01/23 00:33:46;;;;;;;15.98;8.80;;;2.80;99.90;;;;;;4964606;28;20051;-62
2023/01/23 00:36:14;;;;;;;15.10;8.55;;;2.60;99.90;;;;;;4965184;28;20129;-62
2023/01/23 00:38:40;;;;;;;10.50;7.57;;;2.00;99.90;;;;;;4931295;28;20051;-62
2023/01/23 00:41:05;;;;;;;14.23;8.43;;;2.50;99.90;;;;;;4964635;28;20415;-62
2023/01/23 00:43:31;;;;;;;17.50;8.68;;;2.30;99.90;;;;;;4964920;28;20043;-62
2023/01/23 00:45:57;;;;;;;15.35;8.70;;;2.60;99.90;;;;;;4968036;28;20097;-62
2023/01/23 00:48:23;;;;;;;13.48;8.63;;;2.00;99.90;;;;;;4968166;28;20050;-62
2023/01/23 00:50:49;;;;;;;12.90;8.35;;;2.10;99.90;;;;;;4968873;28;20054;-62
2023/01/23 00:53:15;;;;;;;15.25;8.70;;;3.10;99.90;;;;;;4968291;28;20050;-62
2023/01/23 00:55:41;;;;;;;14.15;7.88;;;3.00;99.90;;;;;;4968830;28;20043;-62
2023/01/23 00:58:07;;;;;;;12.38;7.95;;;2.80;99.90;;;;;;4950917;28;20046;-62
2023/01/23 01:00:33;;;;;;;14.60;8.55;;;2.90;99.90;;;;;;4968543;28;20038;-62
2023/01/23 01:02:59;;;;;;;14.48;8.77;;;2.80;99.90;;;;;;4968586;28;20049;-62
2023/01/23 01:05:25;;;;;;;13.43;8.40;;;3.10;99.90;;;;;;4968125;28;20392;-62
2023/01/23 01:07:51;;;;;;;12.70;8.10;;;2.80;99.90;;;;;;4958377;28;20358;-62
2023/01/23 01:10:17;;;;;;;13.00;8.32;;;2.10;99.90;;;;;;4988043;28;20046;-62
2023/01/23 01:12:42;;;;;;;14.18;8.50;;;3.20;99.90;;;;;;4987700;28;20054;-62
2023/01/23 01:15:09;;;;;;;11.65;7.72;;;3.50;99.90;;;;;;4987913;28;20042;-61
2023/01/23 01:17:35;;;;;;;12.65;8.68;;;2.00;99.90;;;;;;4987842;28;20050;-62
2023/01/23 01:20:02;;;;;;;12.60;9.05;;;2.20;99.90;;;;;;4987631;28;20428;-62
2023/01/23 01:22:28;;;;;;;13.65;8.88;;;2.40;99.90;;;;;;4987160;28;20046;-62
2023/01/23 01:24:53;;;;;;;14.38;8.60;;;3.00;99.90;;;;;;4969267;28;20055;-62
2023/01/23 01:27:19;;;;;;;15.93;9.20;;;3.40;99.90;;;;;;4987243;28;20050;-62
2023/01/23 01:29:45;;;;;;;15.93;9.52;;;3.10;99.90;;;;;;4987035;28;20134;-62
2023/01/23 01:32:10;;;;;;;16.50;9.70;;;2.50;99.90;;;;;;4987681;28;20053;-62
2023/01/23 01:34:36;;;;;;;14.15;9.18;;;2.80;99.90;;;;;;4987007;28;20258;-62
2023/01/23 01:37:02;;;;;;;15.23;9.18;;;3.10;99.90;;;;;;4986635;28;20565;-62
2023/01/23 01:39:27;;;;;;;11.75;8.60;;;2.90;99.90;;;;;;4986555;28;20050;-62
2023/01/23 01:41:53;;;;;;;12.65;8.82;;;1.90;99.90;;;;;;4969676;28;20113;-62
2023/01/23 01:44:21;;;;;;;14.00;9.45;;;2.20;99.90;;;;;;4986986;28;20084;-62
2023/01/23 01:46:47;;;;;;;14.38;9.75;;;3.10;99.90;;;;;;4986670;28;20046;-62
2023/01/23 01:49:25;;;;;;;15.10;9.77;;;3.30;99.90;;;;;;4987371;28;20069;-62
2023/01/23 01:52:01;;;;;;;15.55;9.70;;;3.20;99.90;;;;;;4986529;28;20129;-62
2023/01/23 01:54:37;;;;;;;17.45;9.88;;;1.80;99.90;;;;;;4986534;28;20093;-62
2023/01/23 01:57:08;;;;;;;15.65;9.85;;;2.20;99.90;;;;;;4985540;28;20137;-62
2023/01/23 01:59:42;;;;;;;15.90;10.07;;;2.00;99.90;;;;;;4986703;28;20380;-62
2023/01/23 02:02:13;;;;;;;15.40;9.80;;;2.70;99.90;;;;;;4986922;28;20499;-62
2023/01/23 02:04:46;;;;;;;15.80;9.95;;;2.00;99.90;;;;;;4968933;28;20050;-62
2023/01/23 02:07:22;;;;;;;17.27;10.20;;;1.90;99.90;;;;;;4950370;28;20067;-62
2023/01/23 02:09:49;;;;;;;15.90;10.07;;;2.70;99.90;;;;;;4966841;28;20078;-63
2023/01/23 02:12:15;;;;;;;15.95;9.50;;;3.60;99.90;;;;;;4967432;28;20038;-62
2023/01/23 02:14:41;;;;;;;18.15;10.35;;;2.50;99.90;;;;;;4967098;28;20057;-62
2023/01/23 02:17:08;;;;;;;16.63;10.65;;;2.90;99.90;;;;;;4967280;28;20455;-62
2023/01/23 02:19:48;;;;;;;16.27;10.32;;;4.00;99.90;;;;;;4966875;28;20062;-62
2023/01/23 02:22:52;;;;;;;16.00;10.38;;;2.50;99.90;;;;;;4967318;28;20054;-62
2023/01/23 02:25:43;;;;;;;18.02;10.38;;;2.10;99.90;;;;;;4967415;28;20186;-62
2023/01/23 02:28:10;;;;;;;16.15;11.10;;;2.40;99.90;;;;;;4957853;28;20066;-62
2023/01/23 02:30:38;;;;;;;14.20;10.80;;;2.80;99.90;;;;;;4966992;28;20061;-62
2023/01/23 02:33:30;;;;;;;16.73;10.35;;;2.70;99.90;;;;;;4949095;28;20431;-62
2023/01/23 02:35:57;;;;;;;17.08;10.63;;;2.40;99.90;;;;;;4966344;28;20511;-62
2023/01/23 02:38:26;;;;;;;14.48;10.35;;;1.90;99.90;;;;;;4965412;28;20112;-62
2023/01/23 02:40:54;;;;;;;16.90;10.35;;;1.80;99.90;;;;;;4949606;28;20369;-62
2023/01/23 02:43:24;;;;;;;15.70;10.57;;;3.40;99.90;;;;;;4966543;28;20050;-63
2023/01/23 02:45:50;;;;;;;14.05;10.85;;;2.00;99.90;;;;;;4965956;28;20125;-63
2023/01/23 02:48:16;;;;;;;17.77;11.02;;;2.90;99.90;;;;;;4966979;28;20655;-62
2023/01/23 02:50:45;;;;;;;16.30;10.40;;;2.30;99.90;;;;;;4966650;28;20118;-62
2023/01/23 02:53:11;;;;;;;19.20;10.27;;;2.80;99.90;;;;;;4965014;28;20396;-62
2023/01/23 02:55:41;;;;;;;17.48;10.93;;;2.60;99.90;;;;;;4966425;28;20046;-62
2023/01/23 03:00:51;;;;;;;17.75;10.82;;;3.00;99.90;;;;;;4966328;28;20086;-63
2023/01/23 03:03:17;;;;;;;15.02;10.45;;;2.40;99.90;;;;;;4966579;28;20097;-62
2023/01/23 03:05:43;;;;;;;14.93;10.18;;;2.20;99.90;;;;;;4966435;28;20053;-62
2023/01/23 03:08:09;;;;;;;15.25;10.35;;;2.40;99.90;;;;;;4964404;28;20395;-62
2023/01/23 03:10:34;;;;;;;18.30;10.80;;;2.60;99.90;;;;;;4966453;28;20035;-62
2023/01/23 03:13:02;;;;;;;14.55;9.82;;;2.20;99.90;;;;;;4966313;28;20125;-62
2023/01/23 03:15:29;;;;;;;15.35;10.10;;;2.40;99.90;;;;;;4965454;28;20126;-62
2023/01/23 03:17:55;;;;;;;15.00;10.07;;;2.50;99.90;;;;;;4966123;28;20442;-62
2023/01/23 03:20:22;;;;;;;15.75;10.27;;;2.40;99.90;;;;;;4966670;28;20046;-61
2023/01/23 03:22:48;;;;;;;16.52;10.20;;;1.80;99.90;;;;;;4964908;28;20047;-62
2023/01/23 03:25:15;;;;;;;15.15;9.63;;;2.40;99.90;;;;;;4965843;28;20043;-62
2023/01/23 03:27:41;;;;;;;14.50;10.05;;;2.60;99.90;;;;;;4965731;28;20407;-62
2023/01/23 03:30:14;;;;;;;13.32;9.75;;;1.90;99.90;;;;;;4965751;28;20046;-62
2023/01/23 03:32:42;;;;;;;13.98;9.60;;;2.00;99.90;;;;;;4965693;28;20061;-62
2023/01/23 03:35:09;;;;;;;15.95;10.27;;;2.90;99.90;;;;;;4948231;28;20046;-62
2023/01/23 03:37:35;;;;;;;14.40;9.57;;;2.60;99.90;;;;;;4964176;28;20523;-62
2023/01/23 03:42:45;;;;;;;12.82;9.23;;;2.50;99.90;;;;;;4965496;28;20555;-61
2023/01/23 03:45:11;;;;;;;13.90;9.05;;;3.20;99.90;;;;;;4964771;28;20123;-62
2023/01/23 03:47:37;;;;;;;14.02;9.02;;;2.70;99.90;;;;;;4965339;28;20054;-62
2023/01/23 03:50:03;;;;;;;15.52;9.57;;;3.10;99.90;;;;;;4964999;28;20407;-62
2023/01/23 03:52:28;;;;;;;13.10;8.60;;;2.20;99.90;;;;;;4963805;28;20041;-60
2023/01/23 03:54:54;;;;;;;12.88;8.93;;;3.10;99.90;;;;;;4965103;28;20445;-63
2023/01/23 03:57:19;;;;;;;15.13;8.55;;;2.40;99.90;;;;;;4965254;28;20053;-62
2023/01/23 03:59:45;;;;;;;12.45;8.35;;;2.30;99.90;;;;;;4965006;28;20038;-62
2023/01/23 04:02:11;;;;;;;14.52;8.73;;;1.90;99.90;;;;;;4965273;28;20043;-62
2023/01/23 04:04:37;;;;;;;13.43;8.35;;;2.80;99.90;;;;;;4965182;28;20189;-62
2023/01/23 04:07:03;;;;;;;13.98;8.65;;;2.20;99.90;;;;;;4964265;28;20074;-63
2023/01/23 04:09:29;;;;;;;13.57;8.85;;;2.90;99.90;;;;;;4964653;28;20066;-62
2023/01/23 04:11:56;;;;;;;12.07;8.40;;;2.10;99.90;;;;;;4965656;28;20043;-62
2023/01/23 04:14:23;;;;;;;14.32;9.00;;;2.50;99.90;;;;;;4965631;28;20046;-62
2023/01/23 04:16:49;;;;;;;11.90;8.07;;;3.10;99.90;;;;;;4947625;28;20381;-62
2023/01/23 04:19:18;;;;;;;12.73;9.00;;;1.80;99.90;;;;;;4965499;28;20050;-62
2023/01/23 04:21:45;;;;;;;15.20;8.73;;;2.90;99.90;;;;;;4969056;28;20435;-62
2023/01/23 04:24:10;;;;;;;14.82;8.35;;;1.80;99.90;;;;;;4968314;28;20072;-62
2023/01/23 04:26:36;;;;;;;13.80;9.23;;;2.30;99.90;;;;;;4969046;28;20883;-62
2023/01/23 04:29:03;;;;;;;13.23;8.50;;;3.30;99.90;;;;;;4969269;28;20047;-62
2023/01/23 04:31:29;;;;;;;13.13;9.13;;;2.40;99.90;;;;;;4969025;28;20391;-62
2023/01/23 04:33:55;;;;;;;14.48;8.52;;;3.40;99.90;;;;;;4952259;28;20050;-62
2023/01/23 04:36:20;;;;;;;12.82;8.57;;;3.10;99.90;;;;;;4968536;28;20070;-62
2023/01/23 04:38:46;;;;;;;14.63;9.10;;;2.60;99.90;;;;;;4968086;28;20046;-62
2023/01/23 04:41:27;;;;;;;16.95;9.15;;;2.60;99.90;;;;;;4951151;28;20050;-62
2023/01/23 04:43:53;;;;;;;13.90;8.68;;;2.30;99.90;;;;;;4969233;28;20450;-62
2023/01/23 04:46:18;;;;;;;12.95;9.23;;;2.80;99.90;;;;;;4968220;28;20035;-62
2023/01/23 04:48:44;;;;;;;14.85;9.60;;;2.70;99.90;;;;;;4968681;28;20043;-62
2023/01/23 04:51:10;;;;;;;13.77;8.82;;;1.90;99.90;;;;;;4968857;28;20562;-62
2023/01/23 04:53:35;;;;;;;13.10;9.10;;;1.80;99.90;;;;;;4967967;28;20047;-62
2023/01/23 04:56:01;;;;;;;13.88;9.55;;;2.10;99.90;;;;;;4968185;28;20043;-62
2023/01/23 04:58:27;;;;;;;12.23;8.60;;;2.20;99.90;;;;;;4968878;28;20109;-62
2023/01/23 05:00:53;;;;;;;14.07;9.10;;;2.90;99.90;;;;;;4968637;28;20039;-62
2023/01/23 05:03:18;;;;;;;13.73;9.15;;;2.60;99.90;;;;;;4967827;28;20083;-62
2023/01/23 05:05:47;;;;;;;12.02;8.57;;;2.30;99.90;;;;;;4968687;28;20050;-62
2023/01/23 05:08:13;;;;;;;15.88;9.43;;;2.50;99.90;;;;;;4967449;28;20078;-62
2023/01/23 05:10:39;;;;;;;16.27;10.20;;;2.40;99.90;;;;;;4967822;28;20039;-62
2023/01/23 05:13:04;;;;;;;15.75;9.85;;;2.50;99.90;;;;;;4968541;28;20061;-62
2023/01/23 05:15:30;;;;;;;12.98;9.70;;;3.20;99.90;;;;;;4968142;28;20576;-63
2023/01/23 05:17:56;;;;;;;13.75;9.88;;;1.90;99.90;;;;;;4968745;28;20051;-62
2023/01/23 05:20:24;;;;;;;14.23;9.77;;;2.70;99.90;;;;;;4967821;28;20100;-62
2023/01/23 05:22:51;;;;;;;13.43;9.63;;;1.90;99.90;;;;;;4967331;28;20043;-62
2023/01/23 05:25:25;;;;;;;15.48;9.43;;;3.10;99.90;;;;;;4967818;28;20050;-62
2023/01/23 05:27:52;;;;;;;13.23;9.80;;;2.50;99.90;;;;;;4968022;28;20174;-62
2023/01/23 05:30:21;;;;;;;15.90;9.57;;;3.20;99.90;;;;;;4967600;28;20047;-62
2023/01/23 05:32:47;;;;;;;15.18;9.75;;;2.50;99.90;;;;;;4967854;28;20061;-62
2023/01/23 05:35:13;;;;;;;14.88;9.30;;;2.60;99.90;;;;;;4967458;28;20055;-62
2023/01/23 05:37:38;;;;;;;11.52;9.02;;;2.90;99.90;;;;;;4967083;28;20050;-62
2023/01/23 05:40:07;;;;;;;13.38;9.35;;;2.80;99.90;;;;;;4967765;28;20062;-62
2023/01/23 05:42:33;;;;;;;14.50;9.77;;;2.50;99.90;;;;;;4967451;28;20058;-62
2023/01/23 05:44:59;;;;;;;16.95;9.63;;;2.00;99.90;;;;;;4950440;28;20051;-62
2023/01/23 05:47:25;;;;;;;15.50;10.07;;;2.50;99.90;;;;;;4967601;28;20337;-62
2023/01/23 05:49:50;;;;;;;14.05;9.50;;;3.00;99.90;;;;;;4967252;28;20047;-62
2023/01/23 05:52:16;;;;;;;16.73;9.48;;;2.50;99.90;;;;;;4967355;28;20043;-62
2023/01/23 05:54:41;;;;;;;15.20;9.60;;;2.90;99.90;;;;;;4967802;28;20480;-62
2023/01/23 05:57:08;;;;;;;14.02;9.38;;;1.90;99.90;;;;;;4967099;28;20042;-62
2023/01/23 05:59:34;;;;;;;13.68;9.00;;;2.60;99.90;;;;;;4967584;28;20042;-62
2023/01/23 06:01:59;;;;;;;16.52;9.52;;;1.90;99.90;;;;;;4967710;28;20404;-62
2023/01/23 06:04:25;;;;;;;13.25;9.32;;;2.40;99.90;;;;;;4950213;28;20518;-62
2023/01/23 06:06:50;;;;;;;12.82;9.15;;;2.50;99.90;;;;;;4966188;28;20043;-62
2023/01/23 06:09:16;;;;;;;12.95;9.07;;;2.60;99.90;;;;;;4967273;28;20054;-62
2023/01/23 06:11:42;;;;;;;14.80;9.32;;;1.60;99.90;;;;;;4967101;28;20046;-62
2023/01/23 06:14:07;;;;;;;14.85;9.27;;;1.70;99.90;;;;;;4949172;28;20053;-62
2023/01/23 06:16:33;;;;;;;12.98;9.88;;;1.60;99.90;;;;;;4967376;28;20046;-62
2023/01/23 06:18:59;;;;;;;12.18;9.07;;;1.60;99.90;;;;;;4967195;28;20455;-62
2023/01/23 06:21:24;;;;;;;12.75;9.68;;;2.20;99.90;;;;;;4966821;28;20047;-62
2023/01/23 06:23:50;;;;;;;12.93;9.30;;;1.60;99.90;;;;;;4966011;28;20078;-62
2023/01/23 06:26:16;;;;;;;15.65;10.45;;;2.60;99.90;;;;;;4966836;28;20053;-62
2023/01/23 06:28:41;;;;;;;14.30;8.88;;;2.80;99.90;;;;;;4966653;28;20089;-62
2023/01/23 06:31:09;;;;;;;15.02;9.85;;;2.20;99.90;;;;;;4966446;28;20042;-62
2023/01/23 06:33:35;;;;;;;14.15;9.57;;;2.50;99.90;;;;;;4966734;28;20058;-63
2023/01/23 06:36:03;;;;;;;15.77;10.40;;;2.30;99.90;;;;;;4966833;28;20138;-62
2023/01/23 06:38:30;;;;;;;13.50;9.70;;;1.90;99.90;;;;;;4948148;28;20109;-62
2023/01/23 06:40:56;;;;;;;13.60;9.45;;;2.20;99.90;;;;;;4966472;28;20042;-62
2023/01/23 06:43:22;;;;;;;12.55;9.38;;;2.10;99.90;;;;;;4966021;28;20118;-62
2023/01/23 06:45:48;;;;;;;13.23;9.60;;;3.00;99.90;;;;;;4966008;28;20105;-62
2023/01/23 06:48:14;;;;;;;14.48;9.52;;;3.50;99.90;;;;;;4966347;28;20487;-62
2023/01/23 06:50:42;;;;;;;16.13;9.43;;;3.50;99.90;;;;;;4966389;28;20042;-62
2023/01/23 06:53:09;;;;;;;12.80;9.48;;;2.40;99.90;;;;;;4948002;28;20054;-63
2023/01/23 06:55:35;;;;;;;13.30;9.63;;;2.80;99.90;;;;;;4966098;28;20094;-63
2023/01/23 06:58:00;;;;;;;12.95;9.10;;;2.20;99.90;;;;;;4966206;28;20070;-62
2023/01/23 07:00:26;;;;;;;12.93;8.82;;;2.50;99.90;;;;;;4966541;28;20050;-62
2023/01/23 07:02:52;;;;;;;14.07;9.10;;;1.70;99.90;;;;;;4965896;28;20412;-62
2023/01/23 07:05:19;;;;;;;13.48;9.07;;;2.20;99.90;;;;;;4948859;28;20043;-62
2023/01/23 07:07:45;;;;;;;14.90;9.10;;;1.90;99.90;;;;;;4965159;28;20054;-62
2023/01/23 07:10:11;;;;;;;14.00;9.30;;;2.00;99.90;;;;;;4965906;28;20086;-63
2023/01/23 07:12:37;;;;;;;12.48;8.73;;;1.50;99.90;;;;;;4965724;28;20049;-63
2023/01/23 07:15:03;;;;;;;12.30;8.77;;;2.70;99.90;;;;;;4966288;28;20047;-62
2023/01/23 07:17:29;;;;;;;13.13;8.93;;;1.60;99.90;;;;;;4965497;28;20129;-62
2023/01/23 07:19:54;;;;;;;12.18;8.52;;;2.00;99.90;;;;;;4965934;28;20181;-62
2023/01/23 07:22:21;;;;;;;11.52;8.57;;;3.00;99.90;;;;;;4965090;28;20102;-62
2023/01/23 07:24:47;;;;;;;11.50;8.30;;;2.60;99.90;;;;;;4965652;28;20160;-62
2023/01/23 07:27:14;;;;;;;11.52;8.10;;;2.10;99.90;;;;;;4965177;28;20074;-62
2023/01/23 07:29:40;;;;;;;11.48;8.10;;;2.30;99.90;;;;;;4965875;28;20042;-62
2023/01/23 07:32:06;;;;;;;11.20;8.25;;;1.50;99.90;;;;;;4965833;28;20047;-62
2023/01/23 07:34:32;;;;;;;11.02;8.07;;;2.10;99.90;;;;;;4964937;28;20419;-62
2023/01/23 07:36:58;;;;;;;11.18;8.05;;;2.10;99.90;;;;;;4964832;28;20035;-62
2023/01/23 07:39:24;;;;;;;10.88;7.95;;;1.60;99.90;;;;;;4965453;28;20042;-62
2023/01/23 07:41:49;;;;;;;11.60;8.32;;;2.00;99.90;;;;;;4964505;28;20392;-63
2023/01/23 07:44:17;;;;;;;10.35;7.55;;;1.90;99.90;;;;;;4965568;28;20046;-63
2023/01/23 07:46:44;;;;;;;11.52;7.45;;;2.40;99.90;;;;;;4965391;28;20046;-63
2023/01/23 07:49:09;;;;;;;11.77;8.05;;;1.70;99.90;;;;;;4965646;28;20245;-62
2023/01/23 07:51:35;;;;;;;11.30;7.57;;;2.80;99.90;;;;;;4964597;28;20046;-62
2023/01/23 07:54:01;;;;;;;10.85;7.78;;;1.60;99.90;;;;;;4965211;28;20100;-63
2023/01/23 07:56:26;;;;;;;11.43;7.75;;;2.50;99.90;;;;;;4965230;28;20657;-63
2023/01/23 07:58:52;;;;;;;12.43;8.65;;;3.00;99.90;;;;;;4964753;28;20047;-63
2023/01/23 08:01:18;;;;;;;13.50;8.05;;;1.70;99.90;;;;;;4965455;28;20704;-63
2023/01/23 08:03:44;;;;;;;10.88;7.93;;;2.60;99.90;;;;;;4964967;28;20558;-63
2023/01/23 08:06:10;;;;;;;9.65;7.55;;;2.70;99.90;;;;;;4964734;28;20444;-63
2023/01/23 08:08:36;;;;;;;11.40;7.80;;;2.80;99.90;;;;;;4961288;28;20140;-63
2023/01/23 08:11:06;;;;;;;11.10;7.85;;;2.30;99.90;;;;;;4984058;28;20131;-63
2023/01/23 08:13:32;;;;;;;12.70;7.85;;;2.20;99.90;;;;;;4984368;28;20057;-62
2023/01/23 08:15:58;;;;;;;11.40;7.43;;;3.40;99.90;;;;;;4984215;28;20065;-62
2023/01/23 08:18:25;;;;;;;12.05;7.95;;;2.90;99.90;;;;;;4984393;28;20050;-63
2023/01/23 08:20:59;;;;;;;10.00;7.38;;;2.70;99.90;;;;;;4984230;28;20463;-63
2023/01/23 08:23:30;;;;;;;9.18;7.70;;;3.00;99.90;;;;;;4983469;28;20493;-63
2023/01/23 08:25:57;;;;;;;10.27;7.68;;;2.60;99.90;;;;;;4984492;28;20042;-63
2023/01/23 08:28:24;;;;;;;11.65;7.90;;;3.30;99.90;;;;;;4983941;28;20038;-63
2023/01/23 08:30:50;;;;;;;10.52;7.95;;;2.90;99.90;;;;;;4984451;28;20085;-62
2023/01/23 08:33:17;;;;;;;11.75;8.25;;;1.70;99.90;;;;;;4966862;28;20047;-63
2023/01/23 08:35:56;;;;;;;11.20;8.65;;;2.50;99.90;;;;;;4984976;28;20609;-63
2023/01/23 08:38:23;;;;;;;12.88;8.43;;;1.80;99.90;;;;;;4985006;28;20042;-62
2023/01/23 08:40:50;;;;;;;11.07;8.40;;;1.70;99.90;;;;;;4986406;28;20689;-63
2023/01/23 08:43:17;;;;;;;11.73;8.25;;;2.00;99.90;;;;;;4986078;28;20169;-62
2023/01/23 08:45:48;;;;;;;10.98;8.65;;;2.20;99.90;;;;;;4985935;28;20129;-63
2023/01/23 08:48:14;;;;;;;14.77;8.68;;;3.10;99.90;;;;;;4968428;28;20583;-63
2023/01/23 08:50:40;;;;;;;13.75;8.88;;;2.20;99.90;;;;;;4968897;28;20053;-62
2023/01/23 08:53:06;;;;;;;11.68;8.50;;;2.70;99.90;;;;;;4985684;28;20055;-62
2023/01/23 08:55:34;;;;;;;15.13;9.40;;;2.40;99.90;;;;;;4986451;28;20042;-63
2023/01/23 08:58:01;;;;;;;15.68;10.05;;;2.40;99.90;;;;;;4986004;28;20086;-63
2023/01/23 09:00:27;;;;;;;12.88;10.00;;;2.00;99.90;;;;;;4985933;28;20133;-62
2023/01/23 09:02:52;;;;;;;13.95;9.05;;;3.10;99.90;;;;;;4985754;28;20073;-63
2023/01/23 09:05:18;;;;;;;12.15;9.35;;;2.00;99.90;;;;;;4986570;28;20073;-63
2023/01/23 09:07:44;;;;;;;14.43;9.57;;;2.60;99.90;;;;;;4981254;28;20550;-63
2023/01/23 09:10:11;;;;;;;15.70;10.15;;;2.30;99.90;;;;;;4970267;28;20564;-63
2023/01/23 09:12:37;;;;;;;14.35;9.90;;;3.00;99.90;;;;;;4970268;28;20117;-62
2023/01/23 09:15:03;;;;;;;13.32;9.55;;;2.10;99.90;;;;;;4969288;28;20754;-63
2023/01/23 09:17:29;;;;;;;13.55;10.02;;;2.20;99.90;;;;;;4950742;28;20082;-63
2023/01/23 09:19:55;;;;;;;14.70;10.43;;;3.40;99.90;;;;;;4967880;28;20542;-63
2023/01/23 09:22:20;;;;;;;12.75;10.05;;;2.90;99.90;;;;;;4966416;28;20516;-63
2023/01/23 09:24:46;;;;;;;14.25;10.48;;;2.90;99.90;;;;;;4967683;28;20182;-63
2023/01/23 09:27:13;;;;;;;14.77;10.52;;;2.90;99.90;;;;;;4968083;28;20504;-63
2023/01/23 09:29:38;;;;;;;14.45;11.10;;;3.40;99.90;;;;;;4967782;28;20046;-63
2023/01/23 09:32:04;;;;;;;16.25;11.40;;;2.80;99.90;;;;;;4967074;28;20057;-63
2023/01/23 09:34:30;;;;;;;14.57;10.95;;;2.20;99.90;;;;;;4967304;28;20038;-62
2023/01/23 09:36:56;;;;;;;14.38;10.75;;;2.30;99.90;;;;;;4949625;28;20146;-63
2023/01/23 09:39:22;;;;;;;20.65;11.35;;;2.50;99.90;;;;;;4967281;28;20053;-63
2023/01/23 09:41:48;;;;;;;16.13;10.80;;;3.00;99.90;;;;;;4967266;28;20285;-63
2023/01/23 09:44:29;;;;;;;15.40;11.50;;;2.90;99.90;;;;;;4967207;28;20043;-64
2023/01/23 09:47:03;;;;;;;15.27;11.63;;;2.70;99.90;;;;;;4949978;28;20570;-63
2023/01/23 09:50:10;;;;;;;15.88;11.52;;;3.50;99.90;;;;;;4967187;28;20094;-62
2023/01/23 09:52:43;;;;;;;15.18;10.85;;;2.60;99.90;;;;;;4962834;28;20050;-63
2023/01/23 09:55:17;;;;;;;18.88;12.20;;;3.30;99.90;;;;;;4966151;28;20054;-63
2023/01/23 09:57:53;;;;;;;17.45;12.48;;;2.90;99.90;;;;;;4967549;28;20097;-63
2023/01/23 10:00:29;;;;;;;16.60;12.40;;;2.50;99.90;;;;;;4965451;28;20371;-62
2023/01/23 10:02:55;;;;;;;18.52;12.65;;;3.00;99.90;;;;;;4954735;28;20050;-61
2023/01/23 10:05:51;;;;;;;16.48;12.38;;;2.30;99.90;;;;;;4966779;28;20451;-63
2023/01/23 10:08:37;;;;;;;;;;;2.90;99.90;;;;;;4966889;28;20086;-64
2023/01/23 10:11:15;;;;;;;17.20;12.98;;;3.00;99.90;;;;;;4966148;28;19922;-62
2023/01/23 10:13:44;;;;;;;20.17;13.13;;;2.70;99.90;;;;;;4967301;28;20068;-63
2023/01/23 10:16:28;;;;;;;17.75;12.73;;;2.50;99.90;;;;;;4967236;28;20050;-63
2023/01/23 10:19:15;;;;;;;19.73;13.93;;;2.30;99.90;;;;;;4966410;28;20554;-63
2023/01/23 10:22:04;;;;;;;20.38;13.10;;;2.90;99.90;;;;;;4966254;28;20043;-63
2023/01/23 10:24:48;;;;;;;16.98;12.85;;;2.40;99.90;;;;;;4926721;28;20080;-61
2023/01/23 10:27:37;;;;;;;19.48;14.82;;;3.70;99.90;;;;;;4967266;28;20042;-61
2023/01/23 10:30:30;;;;;;;16.20;12.93;;;2.40;99.90;;;;;;4966495;28;20458;-62
2023/01/23 10:33:07;;;;;;;17.30;13.00;;;3.20;99.90;;;;;;4966999;28;20034;-65
2023/01/23 10:35:42;;;;;;;20.30;13.30;;;2.50;99.90;;;;;;4966644;28;20035;-64
2023/01/23 10:38:19;;;;;;;19.90;13.77;;;3.00;99.90;;;;;;4930488;29;20055;-62
2023/01/23 10:43:31;;;;;;;19.70;13.20;;;3.00;99.90;;;;;;4967960;28;20053;-62
2023/01/23 10:45:56;;;;;;;19.20;14.13;;;3.50;99.90;;;;;;4967405;28;20076;-62
2023/01/23 10:48:31;;;;;;;18.10;13.48;;;3.40;99.90;;;;;;4949971;28;20181;-63
2023/01/23 10:50:57;;;;;;;18.45;13.52;;;3.30;99.90;;;;;;4968073;28;20039;-63
2023/01/23 10:53:24;;;;;;;19.00;13.30;;;3.00;99.90;;;;;;4967131;28;20086;-62
2023/01/23 10:55:52;;;;;;;20.95;13.50;;;2.80;99.90;;;;;;4967909;28;20050;-63
2023/01/23 10:58:36;;;;;;;16.55;13.13;;;3.30;99.90;;;;;;4967810;28;20047;-63
2023/01/23 11:01:03;;;;;;;20.30;13.60;;;2.70;99.90;;;;;;4967941;28;20050;-63
2023/01/23 11:03:35;;;;;;;16.35;12.05;;;3.40;99.90;;;;;;4967557;28;20042;-62
2023/01/23 11:06:15;;;;;;;16.27;11.35;;;2.70;99.90;;;;;;4966843;28;20046;-62
2023/01/23 11:08:59;;;;;;;16.45;11.98;;;3.00;99.90;;;;;;4967941;28;20062;-62
2023/01/23 11:11:27;;;;;;;15.53;12.37;;;2.60;99.90;;;;;;4967668;28;20051;-63
2023/01/23 11:14:15;;;;;;;18.40;12.68;;;3.40;99.90;;;;;;4950282;28;20062;-63
2023/01/23 11:16:42;;;;;;;18.17;13.43;;;2.70;99.90;;;;;;4967281;28;20078;-63
2023/01/23 11:19:11;;;;;;;18.20;13.52;;;3.80;99.90;;;;;;4967455;28;20054;-63
2023/01/23 11:21:58;;;;;;;15.52;12.88;;;2.80;99.90;;;;;;4967210;28;20074;-62
2023/01/23 11:24:34;;;;;;;18.00;12.52;;;3.40;99.90;;;;;;4967854;28;20051;-63
2023/01/23 11:27:15;;;;;;;16.35;11.93;;;3.00;99.90;;;;;;4967681;28;20129;-62
2023/01/23 11:30:05;;;;;;;16.52;12.50;;;2.80;99.90;;;;;;4967120;28;20061;-62
2023/01/23 11:32:41;;;;;;;15.30;12.40;;;2.80;99.90;;;;;;4967303;28;20039;-59
2023/01/23 11:35:20;;;;;;;14.98;11.23;;;3.40;99.90;;;;;;4949443;28;20085;-63
2023/01/23 11:37:46;;;;;;;15.65;11.60;;;3.10;99.90;;;;;;4947077;28;20051;-63
2023/01/23 11:40:16;;;;;;;14.35;10.88;;;3.40;99.90;;;;;;4966887;28;20042;-62
2023/01/23 11:42:42;;;;;;;13.48;10.73;;;3.40;99.90;;;;;;4967637;28;20042;-62
2023/01/23 11:45:42;;;;;;;13.85;10.75;;;3.30;99.90;;;;;;4966603;28;20051;-63
2023/01/23 11:48:49;;;;;;;14.48;10.65;;;3.00;99.90;;;;;;4964553;28;20144;-63
2023/01/23 11:51:20;;;;;;;12.30;9.80;;;2.90;99.90;;;;;;4917576;28;20407;-64
2023/01/23 11:54:04;;;;;;;13.90;10.85;;;2.80;99.90;;;;;;4965463;28;20057;-63
2023/01/23 11:56:51;;;;;;;13.70;10.52;;;2.80;99.90;;;;;;4966410;28;20295;-67
2023/01/23 11:59:19;;;;;;;13.50;10.35;;;3.20;99.90;;;;;;4966390;28;20082;-65
2023/01/23 12:02:15;;;;;;;13.10;10.57;;;3.40;99.90;;;;;;4966834;28;20463;-65
2023/01/23 12:05:20;;;;;;;12.40;10.00;;;3.30;99.90;;;;;;4966604;28;20475;-63
2023/01/23 12:08:05;;;;;;;13.95;10.45;;;3.30;99.90;;;;;;4947994;28;20447;-62
2023/01/23 12:11:12;;;;;;;13.10;10.63;;;3.00;99.90;;;;;;4966164;28;20059;-62
2023/01/23 12:14:03;;;;;;;14.38;10.63;;;3.40;99.90;;;;;;4966528;28;20431;-62
2023/01/23 12:17:07;;;;;;;14.15;11.45;;;3.40;99.90;;;;;;4966920;28;20427;-61
2023/01/23 12:19:51;;;;;;;17.60;12.35;;;3.20;99.90;;;;;;4965810;28;20051;-63
2023/01/23 12:22:44;;;;;;;15.00;11.95;;;3.20;99.90;;;;;;4965119;28;20046;-62
2023/01/23 12:25:30;;;;;;;16.98;12.30;;;3.00;99.90;;;;;;4966576;28;20046;-62
2023/01/23 12:28:19;;;;;;;16.63;11.65;;;3.00;99.90;;;;;;4967397;28;20097;-63
2023/01/23 12:31:23;;;;;;;15.13;12.25;;;3.00;99.90;;;;;;4949200;28;20090;-62
2023/01/23 12:34:01;;;;;;;14.73;11.43;;;3.50;99.90;;;;;;4888085;29;20082;-62
2023/01/23 12:36:54;;;;;;;13.90;11.40;;;3.10;99.90;;;;;;4955467;28;20062;-64
2023/01/23 12:40:00;;;;;;;16.38;12.00;;;3.30;99.90;;;;;;4966330;28;20110;-64
2023/01/23 12:42:33;;;;;;;12.98;10.50;;;3.10;99.90;;;;;;4969969;28;20551;-62
2023/01/23 12:45:25;;;;;;;16.33;12.00;;;3.00;99.90;;;;;;4953282;28;20042;-61
2023/01/23 12:48:06;;;;;;;16.02;11.18;;;3.60;99.90;;;;;;4970393;28;20047;-64
2023/01/23 12:50:39;;;;;;;15.00;11.85;;;3.30;99.90;;;;;;4970445;28;20039;-61
2023/01/23 12:53:14;;;;;;;15.68;11.38;;;3.20;99.90;;;;;;4970510;28;20069;-64
2023/01/23 12:55:52;;;;;;;14.52;12.05;;;3.60;99.90;;;;;;4970789;28;20409;-61
2023/01/23 12:58:19;;;;;;;16.38;12.10;;;3.40;99.90;;;;;;4969739;28;20108;-64
2023/01/23 13:01:00;;;;;;;15.90;12.15;;;3.20;99.90;;;;;;4970283;28;20109;-62
2023/01/23 13:03:48;;;;;;;15.48;12.27;;;3.60;99.90;;;;;;4970061;28;20050;-62
2023/01/23 13:06:54;;;;;;;15.07;11.88;;;2.90;99.90;;;;;;4969655;28;20051;-64
2023/01/23 13:09:23;;;;;;;;;;;3.30;99.90;;;;;;4990043;28;20116;-61